createdAt,value
2023-09-12T00:02:27.302Z,14.84
2023-09-12T00:04:55.337Z,14.81
2023-09-12T00:07:23.237Z,14.78
2023-09-12T00:09:51.258Z,14.75
2023-09-12T00:12:24.208Z,14.72
2023-09-12T00:14:52.476Z,14.71
2023-09-12T00:17:20.654Z,14.71
2023-09-12T00:19:48.673Z,14.73
2023-09-12T00:22:16.578Z,14.73
2023-09-12T00:24:44.780Z,14.71
2023-09-12T00:27:12.982Z,14.67
2023-09-12T00:29:41.037Z,14.68
2023-09-12T00:32:09.099Z,14.68
2023-09-12T00:34:37.189Z,14.68
2023-09-12T00:37:06.080Z,14.66
2023-09-12T00:39:34.671Z,14.64
2023-09-12T00:42:02.649Z,14.62
2023-09-12T00:44:30.684Z,14.58
2023-09-12T00:46:59.124Z,14.55
2023-09-12T00:49:29.364Z,14.54
2023-09-12T00:51:58.087Z,14.51
2023-09-12T00:54:26.882Z,14.46
2023-09-12T00:56:55.271Z,14.41
2023-09-12T00:59:23.771Z,14.37
2023-09-12T01:01:52.469Z,14.33
2023-09-12T01:04:34.185Z,14.30
2023-09-12T01:07:06.388Z,14.27
2023-09-12T01:09:34.863Z,14.24
2023-09-12T01:12:04.183Z,14.22
2023-09-12T01:14:32.540Z,14.21
2023-09-12T01:17:02.734Z,14.19
2023-09-12T01:19:31.815Z,14.17
2023-09-12T01:22:37.715Z,14.16
2023-09-12T01:25:50.419Z,14.15
2023-09-12T01:28:18.628Z,14.13
2023-09-12T01:30:49.997Z,14.14
2023-09-12T01:33:18.338Z,14.13
2023-09-12T01:35:47.658Z,14.11
2023-09-12T01:38:16.002Z,14.08
2023-09-12T01:40:50.185Z,14.08
2023-09-12T01:43:20.668Z,14.08
2023-09-12T01:45:54.901Z,14.08
2023-09-12T01:48:27.997Z,14.06
2023-09-12T01:50:56.146Z,14.03
2023-09-12T01:53:24.578Z,14.02
2023-09-12T01:55:53.179Z,14.03
2023-09-12T01:58:22.107Z,14.02
2023-09-12T02:00:50.222Z,13.98
2023-09-12T02:03:18.540Z,13.95
2023-09-12T02:05:46.886Z,13.94
2023-09-12T02:08:14.898Z,13.91
2023-09-12T02:10:42.856Z,13.91
2023-09-12T02:13:10.790Z,13.90
2023-09-12T02:15:38.819Z,13.88
2023-09-12T02:18:07.255Z,13.87
2023-09-12T02:20:39.591Z,13.86
2023-09-12T02:23:08.064Z,13.84
2023-09-12T02:25:35.984Z,13.81
2023-09-12T02:28:04.617Z,13.80
2023-09-12T02:30:32.638Z,13.77
2023-09-12T02:33:01.137Z,13.76
2023-09-12T02:35:29.804Z,13.74
2023-09-12T02:37:57.870Z,13.72
2023-09-12T02:40:26.037Z,13.70
2023-09-12T02:42:54.025Z,13.71
2023-09-12T02:45:22.065Z,13.71
2023-09-12T02:47:50.103Z,13.67
2023-09-12T02:50:18.270Z,13.63
2023-09-12T02:52:46.204Z,13.61
2023-09-12T02:55:14.164Z,13.60
2023-09-12T02:57:42.261Z,13.59
2023-09-12T03:00:12.505Z,13.57
2023-09-12T03:02:40.601Z,13.54
2023-09-12T03:05:09.317Z,13.51
2023-09-12T03:07:37.281Z,13.50
2023-09-12T03:10:05.783Z,13.49
2023-09-12T03:12:33.873Z,13.47
2023-09-12T03:15:02.281Z,13.44
2023-09-12T03:17:30.527Z,13.42
2023-09-12T03:19:58.784Z,13.40
2023-09-12T03:22:26.855Z,13.37
2023-09-12T03:24:54.826Z,13.34
2023-09-12T03:27:22.903Z,13.32
2023-09-12T03:29:51.081Z,13.30
2023-09-12T03:32:18.992Z,13.28
2023-09-12T03:34:46.972Z,13.25
2023-09-12T03:37:14.949Z,13.23
2023-09-12T03:39:42.955Z,13.21
2023-09-12T03:42:10.980Z,13.20
2023-09-12T03:44:39.174Z,13.18
2023-09-12T03:47:07.346Z,13.15
2023-09-12T03:49:35.668Z,13.13
2023-09-12T03:52:04.176Z,13.12
2023-09-12T03:54:33.857Z,13.11
2023-09-12T03:57:02.025Z,13.09
2023-09-12T03:59:30.066Z,13.08
2023-09-12T04:02:48.309Z,13.07
2023-09-12T04:05:16.367Z,13.07
2023-09-12T04:07:44.369Z,13.05
2023-09-12T04:10:12.712Z,13.04
2023-09-12T04:12:41.391Z,13.05
2023-09-12T04:15:09.777Z,13.04
2023-09-12T04:17:38.398Z,13.04
2023-09-12T04:20:07.261Z,13.04
2023-09-12T04:22:36.024Z,13.05
2023-09-12T04:25:04.639Z,13.06
2023-09-12T04:27:32.725Z,13.08
2023-09-12T04:34:37.191Z,13.13
2023-09-12T04:37:06.756Z,13.17
2023-09-12T04:39:35.981Z,13.23
2023-09-12T04:42:05.533Z,13.29
2023-09-12T04:44:41.247Z,13.37
2023-09-12T04:47:10.679Z,13.48
2023-09-12T04:49:40.727Z,13.57
2023-09-12T04:52:08.697Z,13.68
2023-09-12T04:54:37.647Z,13.80
2023-09-12T04:57:05.948Z,13.94
2023-09-12T04:59:34.155Z,14.10
2023-09-12T05:02:02.274Z,14.26
2023-09-12T05:04:30.442Z,14.44
2023-09-12T05:06:58.639Z,14.63
2023-09-12T05:09:26.614Z,14.83
2023-09-12T05:11:54.952Z,15.03
2023-09-12T05:14:23.380Z,15.21
2023-09-12T05:16:52.056Z,15.42
2023-09-12T05:19:20.729Z,15.65
2023-09-12T05:21:48.683Z,15.92
2023-09-12T05:24:16.689Z,16.23
2023-09-12T05:26:44.641Z,16.55
2023-09-12T05:29:12.990Z,16.88
2023-09-12T05:31:41.842Z,17.23
2023-09-12T05:34:10.403Z,17.58
2023-09-12T05:36:38.325Z,17.93
2023-09-12T05:39:06.463Z,18.26
2023-09-12T05:41:34.597Z,18.57
2023-09-12T05:44:02.644Z,18.91
2023-09-12T05:46:30.712Z,19.22
2023-09-12T05:48:59.173Z,19.50
2023-09-12T05:51:27.332Z,19.75
2023-09-12T05:53:55.511Z,20.01
2023-09-12T05:56:23.714Z,20.30
2023-09-12T05:58:52.107Z,20.64
2023-09-12T06:01:20.275Z,20.99
2023-09-12T06:03:48.466Z,21.36
2023-09-12T06:06:16.726Z,21.73
2023-09-12T06:08:44.929Z,22.10
2023-09-12T06:11:13.185Z,22.44
2023-09-12T06:13:41.122Z,22.79
2023-09-12T06:16:08.999Z,23.08
2023-09-12T06:18:37.197Z,23.36
2023-09-12T06:21:07.591Z,23.64
2023-09-12T06:23:36.291Z,23.95
2023-09-12T06:26:04.304Z,24.38
2023-09-12T06:28:32.660Z,24.86
2023-09-12T06:31:00.951Z,25.38
2023-09-12T06:33:29.828Z,25.86
2023-09-12T06:35:57.718Z,26.28
2023-09-12T06:38:25.754Z,26.76
2023-09-12T06:40:53.764Z,27.24
2023-09-12T06:43:21.662Z,27.60
2023-09-12T06:45:49.673Z,28.04
2023-09-12T06:48:17.946Z,28.48
2023-09-12T06:50:50.158Z,28.87
2023-09-12T06:53:19.640Z,29.33
2023-09-12T06:55:47.612Z,29.73
2023-09-12T06:58:15.515Z,30.07
2023-09-12T07:00:43.514Z,30.44
2023-09-12T07:03:14.104Z,30.88
2023-09-12T07:05:44.033Z,31.27
2023-09-12T07:08:12.704Z,31.50
2023-09-12T07:10:47.080Z,31.68
2023-09-12T07:13:15.271Z,31.86
2023-09-12T07:15:43.392Z,31.97
2023-09-12T07:18:11.443Z,32.02
2023-09-12T07:20:39.560Z,31.91
2023-09-12T07:23:07.548Z,31.84
2023-09-12T07:25:42.349Z,31.74
2023-09-12T07:28:10.279Z,31.77
2023-09-12T07:30:38.723Z,31.89
2023-09-12T07:33:06.665Z,31.97
2023-09-12T07:35:34.616Z,32.12
2023-09-12T07:38:02.507Z,32.26
2023-09-12T07:40:30.487Z,32.40
2023-09-12T07:42:58.673Z,32.59
2023-09-12T07:45:26.590Z,32.78
2023-09-12T07:47:54.598Z,32.89
2023-09-12T07:50:22.946Z,33.03
2023-09-12T07:52:50.780Z,33.26
2023-09-12T07:55:19.151Z,33.40
2023-09-12T11:04:35.657Z,34.97
2023-09-12T11:07:42.052Z,34.16
2023-09-12T11:10:22.552Z,33.16
2023-09-12T11:12:55.963Z,32.64
2023-09-12T11:15:26.819Z,32.36
2023-09-12T11:18:04.900Z,32.12
2023-09-12T11:21:06.253Z,31.80
2023-09-12T11:23:35.862Z,31.51
2023-09-12T11:26:08.209Z,31.51
2023-09-12T11:28:36.500Z,31.56
2023-09-12T11:31:05.691Z,31.57
2023-09-12T11:33:34.195Z,31.58
2023-09-12T11:36:04.944Z,31.56
2023-09-12T11:38:33.527Z,31.41
2023-09-12T11:41:02.028Z,31.30
2023-09-12T11:43:30.192Z,30.97
2023-09-12T11:45:59.107Z,30.85
2023-09-12T11:48:31.226Z,30.83
2023-09-12T11:51:00.016Z,30.78
2023-09-12T11:53:32.324Z,30.72
2023-09-12T11:56:01.668Z,30.63
2023-09-12T11:58:30.143Z,30.52
2023-09-12T12:01:02.511Z,30.45
2023-09-12T12:03:31.268Z,30.43
2023-09-12T12:05:59.770Z,30.45
2023-09-12T12:08:32.467Z,30.50
2023-09-12T12:11:01.150Z,30.57
2023-09-12T12:13:29.933Z,30.54
2023-09-12T12:15:59.114Z,30.59
2023-09-12T12:18:28.014Z,30.71
2023-09-12T12:20:56.688Z,30.85
2023-09-12T12:23:24.802Z,31.00
2023-09-12T12:25:52.899Z,31.06
2023-09-12T12:28:22.721Z,31.01
2023-09-12T12:30:55.759Z,31.02
2023-09-12T12:34:13.189Z,31.06
2023-09-12T12:36:11.963Z,31.16
2023-09-12T12:38:51.151Z,31.24
2023-09-12T12:41:40.250Z,31.30
2023-09-12T12:44:14.578Z,31.27
2023-09-12T12:46:50.040Z,31.28
2023-09-12T12:49:18.109Z,31.32
2023-09-12T12:51:47.813Z,31.34
2023-09-12T12:54:16.640Z,31.36
2023-09-12T12:56:48.436Z,31.35
2023-09-12T12:59:16.429Z,31.25
2023-09-12T13:01:45.734Z,31.04
2023-09-12T13:04:14.029Z,30.93
2023-09-12T13:06:42.608Z,30.94
2023-09-12T13:09:12.848Z,31.01
2023-09-12T13:11:41.164Z,31.02
2023-09-12T13:14:12.363Z,30.98
2023-09-12T13:16:42.467Z,30.88
2023-09-12T13:19:14.893Z,30.76
2023-09-12T13:21:44.235Z,30.68
2023-09-12T13:24:14.549Z,30.63
2023-09-12T13:26:42.732Z,30.57
2023-09-12T13:29:11.722Z,30.46
2023-09-12T13:31:40.135Z,30.38
2023-09-12T13:34:08.618Z,30.35
2023-09-12T13:36:36.892Z,30.32
2023-09-12T13:39:05.378Z,30.21
2023-09-12T13:41:33.647Z,30.01
2023-09-12T13:44:01.720Z,29.88
2023-09-12T13:46:31.649Z,29.88
2023-09-12T13:49:01.822Z,29.85
2023-09-12T13:51:31.258Z,29.83
2023-09-12T13:53:59.291Z,29.82
2023-09-12T13:56:27.887Z,29.84
2023-09-12T13:58:56.778Z,29.85
2023-09-12T14:01:33.459Z,29.90
2023-09-12T14:04:04.342Z,29.90
2023-09-12T14:06:35.432Z,29.84
2023-09-12T14:09:04.564Z,29.81
2023-09-12T14:11:36.814Z,29.83
2023-09-12T14:16:38.735Z,29.88
2023-09-12T14:19:07.535Z,29.87
2023-09-12T14:21:36.107Z,29.83
2023-09-12T14:24:06.044Z,29.80
2023-09-12T14:26:35.093Z,29.77
2023-09-12T14:29:03.435Z,29.70
2023-09-12T14:31:31.784Z,29.62
2023-09-12T14:34:00.315Z,29.58
2023-09-12T14:36:28.653Z,29.55
2023-09-12T14:38:56.728Z,29.51
2023-09-12T14:41:24.637Z,29.49
2023-09-12T14:43:52.675Z,29.48
2023-09-12T14:46:20.837Z,29.46
2023-09-12T14:48:59.654Z,29.46
2023-09-12T14:51:33.559Z,29.46
2023-09-12T14:54:04.042Z,29.41
2023-09-12T14:56:33.682Z,29.37
2023-09-12T14:59:02.707Z,29.32
2023-09-12T15:01:32.722Z,29.31
2023-09-12T15:04:02.165Z,29.28
2023-09-12T15:06:34.205Z,29.28
2023-09-12T15:09:02.392Z,29.22
2023-09-12T15:11:32.752Z,29.16
2023-09-12T15:14:01.214Z,29.10
2023-09-12T15:16:32.678Z,29.06
2023-09-12T15:19:03.828Z,29.01
2023-09-12T15:21:31.876Z,28.95
2023-09-12T15:24:00.231Z,28.90
2023-09-12T15:26:28.302Z,28.85
2023-09-12T15:28:57.596Z,28.80
2023-09-12T15:31:25.672Z,28.75
2023-09-12T15:33:53.850Z,28.70
2023-09-12T15:36:22.500Z,28.62
2023-09-12T15:38:50.652Z,28.54
2023-09-12T15:41:19.089Z,28.46
2023-09-12T15:43:48.047Z,28.37
2023-09-12T15:46:30.998Z,28.28
2023-09-12T15:49:04.066Z,28.16
2023-09-12T15:51:33.187Z,28.07
2023-09-12T15:54:01.585Z,27.98
2023-09-12T15:56:29.696Z,27.89
2023-09-12T15:58:59.011Z,27.81
2023-09-12T16:01:27.284Z,27.72
2023-09-12T16:03:55.948Z,27.63
2023-09-12T16:06:23.998Z,27.53
2023-09-12T16:08:52.174Z,27.42
2023-09-12T16:11:20.389Z,27.30
2023-09-12T16:13:51.747Z,27.18
2023-09-12T16:16:20.293Z,27.04
2023-09-12T16:18:49.852Z,26.89
2023-09-12T16:21:18.270Z,26.71
2023-09-12T16:23:46.425Z,26.51
2023-09-12T16:26:14.480Z,26.31
2023-09-12T16:28:43.776Z,26.18
2023-09-12T16:31:12.038Z,26.16
2023-09-12T16:33:40.105Z,26.10
2023-09-12T16:36:08.505Z,26.02
2023-09-12T16:38:36.720Z,25.94
2023-09-12T16:41:04.822Z,25.85
2023-09-12T16:43:33.080Z,25.72
2023-09-12T16:46:01.556Z,25.59
2023-09-12T16:48:31.210Z,25.46
2023-09-12T16:51:00.352Z,25.31
2023-09-12T16:53:28.497Z,25.13
2023-09-12T16:55:59.288Z,24.98
2023-09-12T16:58:28.127Z,24.87
2023-09-12T17:00:56.199Z,24.75
2023-09-12T17:03:24.880Z,24.61
2023-09-12T17:05:53.043Z,24.40
2023-09-12T17:08:21.096Z,24.22
2023-09-12T17:10:49.600Z,24.10
2023-09-12T17:13:17.671Z,24.06
2023-09-12T17:15:45.694Z,24.03
2023-09-12T17:18:14.007Z,24.02
2023-09-12T17:20:42.231Z,23.99
2023-09-12T17:23:10.294Z,23.87
2023-09-12T17:25:38.254Z,23.75
2023-09-12T17:28:06.468Z,23.65
2023-09-12T17:30:34.599Z,23.54
2023-09-12T17:33:02.859Z,23.45
2023-09-12T17:35:30.871Z,23.35
2023-09-12T17:37:58.932Z,23.23
2023-09-12T17:40:27.162Z,23.14
2023-09-12T17:42:55.271Z,23.04
2023-09-12T17:45:23.428Z,22.91
2023-09-12T17:47:54.557Z,22.77
2023-09-12T17:50:23.502Z,22.66
2023-09-12T17:52:51.646Z,22.59
2023-09-12T17:55:20.673Z,22.53
2023-09-12T17:57:48.923Z,22.45
2023-09-12T18:00:17.294Z,22.39
2023-09-12T18:02:45.468Z,22.34
2023-09-12T18:05:13.585Z,22.28
2023-09-12T18:07:41.646Z,22.20
2023-09-12T18:10:10.179Z,22.11
2023-09-12T18:12:38.285Z,22.03
2023-09-12T18:15:08.483Z,21.95
2023-09-12T18:17:36.519Z,21.88
2023-09-12T18:20:05.359Z,21.80
2023-09-12T18:22:33.876Z,21.73
2023-09-12T18:25:02.216Z,21.67
2023-09-12T18:27:30.282Z,21.59
2023-09-12T18:29:58.320Z,21.49
2023-09-12T18:32:26.869Z,21.40
2023-09-12T18:34:54.972Z,21.30
2023-09-12T18:37:23.106Z,21.20
2023-09-12T18:39:51.242Z,21.14
2023-09-12T18:42:19.212Z,21.09
2023-09-12T18:44:47.109Z,21.01
2023-09-12T18:47:15.469Z,20.96
2023-09-12T18:49:43.560Z,20.91
2023-09-12T18:52:11.637Z,20.87
2023-09-12T18:54:39.692Z,20.82
2023-09-12T18:57:12.126Z,20.79
2023-09-12T18:59:42.057Z,20.76
2023-09-12T19:04:38.710Z,20.36
2023-09-12T19:07:06.865Z,20.27
2023-09-12T19:09:35.087Z,20.24
2023-09-12T19:12:04.932Z,20.23
2023-09-12T19:14:33.720Z,20.17
2023-09-12T19:17:02.702Z,20.13
2023-09-12T19:19:30.588Z,20.08
2023-09-12T19:21:59.268Z,20.04
2023-09-12T19:24:27.284Z,19.99
2023-09-12T19:26:55.250Z,19.96
2023-09-12T19:29:23.426Z,19.94
2023-09-12T19:31:51.879Z,19.92
2023-09-12T19:34:20.060Z,19.90
2023-09-12T19:36:48.302Z,19.87
2023-09-12T19:39:16.265Z,19.82
2023-09-12T19:41:44.247Z,19.72
2023-09-12T19:44:12.285Z,19.65
2023-09-12T19:46:41.647Z,19.58
2023-09-12T19:49:10.112Z,19.53
2023-09-12T19:51:38.324Z,19.48
2023-09-12T19:54:07.352Z,19.43
2023-09-12T19:56:35.881Z,19.38
2023-09-12T19:59:04.201Z,19.34
2023-09-12T20:01:32.150Z,19.30
2023-09-12T20:04:00.488Z,19.25
2023-09-12T20:06:28.789Z,19.22
2023-09-12T20:08:56.812Z,19.19
2023-09-12T20:11:25.165Z,19.16
2023-09-12T20:13:53.124Z,19.13
2023-09-12T20:16:22.947Z,19.08
2023-09-12T20:18:51.359Z,19.08
2023-09-12T20:21:19.364Z,19.07
2023-09-12T20:23:47.843Z,19.04
2023-09-12T20:26:15.679Z,19.03
2023-09-12T20:28:43.623Z,18.99
2023-09-12T20:31:11.784Z,18.95
2023-09-12T20:33:40.059Z,18.93
2023-09-12T20:36:08.308Z,18.88
2023-09-12T20:38:37.116Z,18.83
2023-09-12T20:41:05.048Z,18.80
2023-09-12T20:43:33.335Z,18.76
2023-09-12T20:46:01.249Z,18.70
2023-09-12T20:48:29.326Z,18.67
2023-09-12T20:50:57.219Z,18.64
2023-09-12T20:53:25.161Z,18.61
2023-09-12T20:55:53.043Z,18.60
2023-09-12T20:58:21.038Z,18.58
2023-09-12T21:00:49.625Z,18.55
2023-09-12T21:03:17.674Z,18.52
2023-09-12T21:05:47.170Z,18.50
2023-09-12T21:08:15.205Z,18.48
2023-09-12T21:10:45.006Z,18.44
2023-09-12T21:13:16.077Z,18.39
2023-09-12T21:15:44.161Z,18.35
2023-09-12T21:18:12.169Z,18.32
2023-09-12T21:20:40.169Z,18.29
2023-09-12T21:23:08.102Z,18.26
2023-09-12T21:25:36.104Z,18.25
2023-09-12T21:28:04.412Z,18.23
2023-09-12T21:30:32.404Z,18.19
2023-09-12T21:33:01.537Z,18.17
2023-09-12T21:35:29.753Z,18.13
2023-09-12T21:37:57.673Z,18.10
2023-09-12T21:40:25.688Z,18.08
2023-09-12T21:42:53.668Z,18.04
2023-09-12T21:45:22.062Z,18.02
2023-09-12T21:47:50.075Z,17.99
2023-09-12T21:50:18.296Z,17.96
2023-09-12T21:52:46.158Z,17.93
2023-09-12T21:55:14.138Z,17.91
2023-09-12T21:57:42.069Z,17.91
2023-09-12T22:00:24.317Z,17.90
2023-09-12T22:02:53.551Z,17.88
2023-09-12T22:05:22.636Z,17.85
2023-09-12T22:07:51.735Z,17.84
2023-09-12T22:10:20.932Z,17.81
2023-09-12T22:12:49.996Z,17.79
2023-09-12T22:15:18.330Z,17.76
2023-09-12T22:17:46.541Z,17.73
2023-09-12T22:20:18.616Z,17.69
2023-09-12T22:22:47.443Z,17.66
2023-09-12T22:25:16.300Z,17.65
2023-09-12T22:27:44.806Z,17.63
2023-09-12T22:30:12.910Z,17.63
2023-09-12T22:32:40.966Z,17.62
2023-09-12T22:35:09.709Z,17.60
2023-09-12T22:37:37.818Z,17.56
2023-09-12T22:40:08.296Z,17.55
2023-09-12T22:42:36.494Z,17.52
2023-09-12T22:45:06.561Z,17.50
2023-09-12T22:47:34.433Z,17.46
2023-09-12T22:50:06.628Z,17.41
2023-09-12T22:52:34.813Z,17.37
2023-09-12T22:55:05.744Z,17.32
2023-09-12T22:57:34.189Z,17.28
2023-09-12T23:00:02.394Z,17.24
2023-09-12T23:02:30.283Z,17.20
2023-09-12T23:04:58.798Z,17.18
2023-09-12T23:07:27.023Z,17.17
2023-09-12T23:09:55.353Z,17.17
2023-09-12T23:12:24.239Z,17.16
2023-09-12T23:14:55.451Z,17.18
2023-09-12T23:17:23.921Z,17.20
2023-09-12T23:19:52.469Z,17.20
2023-09-12T23:22:20.567Z,17.22
2023-09-12T23:24:49.655Z,17.20
2023-09-12T23:27:17.587Z,17.17
2023-09-12T23:29:46.044Z,17.14
2023-09-12T23:32:14.057Z,17.13
2023-09-12T23:34:42.574Z,17.12
2023-09-12T23:37:10.776Z,17.10
2023-09-12T23:39:38.814Z,17.10
2023-09-12T23:42:06.923Z,17.08
2023-09-12T23:44:35.427Z,17.05
2023-09-12T23:47:03.487Z,17.03
2023-09-12T23:49:31.421Z,17.02
2023-09-12T23:51:59.377Z,17.00
2023-09-12T23:54:27.420Z,16.95
2023-09-12T23:56:55.209Z,16.92
2023-09-12T23:59:23.528Z,16.90
